Time;durP1;ratioP1;P1;durP2;ratioP2;P2;SDS_P1;SDS_P2;PMS_P1;PMS_P2;Temp;Humidity;BMP_temperature;BMP_pressure;BME280_temperature;BME280_humidity;BME280_pressure;Samples;Min_cycle;Max_cycle;Signal;HPM_P1;HPM_P2
2021/11/08 00:02:05;;;;;;;;;;;;;;;;;;5105834;28;19908;-76
2021/11/08 00:04:33;;;;;;;;;;;;;;;;;;5095879;28;19908;-76
2021/11/08 00:06:59;;;;;;;;;;;;;;;;;;5109058;28;20201;-76
2021/11/08 00:09:24;;;;;;;;;;;;;;;;;;5106618;28;19900;-75
2021/11/08 00:11:50;;;;;;;;;;;;;;;;;;5113595;28;19904;-75
2021/11/08 00:14:19;;;;;;;;;;;;;;;;;;5105491;28;19912;-76
2021/11/08 00:21:48;;;;;;;;;;;;;;;;;;5107344;28;19908;-75
2021/11/08 00:24:16;;;;;;;;;;;;;;;;;;5112348;28;19908;-75
2021/11/08 00:26:42;;;;;;;;;;;;;;;;;;5098336;28;19896;-75
2021/11/08 00:29:07;;;;;;;;;;;;;;;;;;5107716;28;19900;-75
2021/11/08 00:31:33;;;;;;;;;;;;;;;;;;5112663;28;19900;-75
2021/11/08 00:33:58;;;;;;;;;;;;;;;;;;5106826;28;19916;-75
2021/11/08 00:36:23;;;;;;;;;;;;;;;;;;5113779;28;19960;-75
2021/11/08 00:38:50;;;;;;;;;;;;;;;;;;5109396;28;19901;-75
2021/11/08 00:41:15;;;;;;;;;;;;;;;;;;5107449;28;19908;-75
2021/11/08 00:43:40;;;;;;;;;;;;;;;;;;5111470;28;19963;-75
2021/11/08 00:46:06;;;;;;;;;;;;;;;;;;5107670;28;20199;-75
2021/11/08 00:48:34;;;;;;;;;;;;;;;;;;5114335;28;19904;-75
2021/11/08 00:51:00;;;;;;;;;;;;;;;;;;5110171;28;19900;-75
2021/11/08 00:53:25;;;;;;;;;;;;;;;;;;5111163;28;19914;-75
2021/11/08 00:55:52;;;;;;;;;;;;;;;;;;5116667;28;19916;-75
2021/11/08 00:58:22;;;;;;;;;;;;;;;;;;5112509;28;19904;-75
2021/11/08 01:00:48;;;;;;;;;;;;;;;;;;5113687;28;20234;-74
2021/11/08 01:03:17;;;;;;;;;;;;;;;;;;5107761;28;19900;-75
2021/11/08 01:05:42;;;;;;;;;;;;;;;;;;5110385;28;19911;-76
2021/11/08 01:08:07;;;;;;;;;;;;;;;;;;5116702;28;19901;-75
2021/11/08 01:10:32;;;;;;;;;;;;;;;;;;5111711;28;19931;-75
2021/11/08 01:12:58;;;;;;;;;;;;;;;;;;5112694;28;20066;-75
2021/11/08 01:15:23;;;;;;;;;;;;;;;;;;5109787;28;19925;-75
2021/11/08 01:17:50;;;;;;;;;;;;;;;;;;5111929;28;19928;-75
2021/11/08 01:20:16;;;;;;;;;;;;;;;;;;5117529;28;19904;-75
2021/11/08 01:22:41;;;;;;;;;;;;;;;;;;5110761;28;19922;-75
2021/11/08 01:25:06;;;;;;;;;;;;;;;;;;5114130;28;19908;-75
2021/11/08 01:27:40;;;;;;;;;;;;;;;;;;5112105;28;19926;-75
2021/11/08 01:30:05;;;;;;;;;;;;;;;;;;5111099;28;20001;-75
2021/11/08 01:32:31;;;;;;;;;;;;;;;;;;5116036;28;19908;-75
2021/11/08 01:34:57;;;;;;;;;;;;;;;;;;5111854;28;19908;-75
2021/11/08 01:37:23;;;;;;;;;;;;;;;;;;5102152;28;19946;-75
2021/11/08 01:39:48;;;;;;;;;;;;;;;;;;5116187;28;19900;-75
2021/11/08 01:42:13;;;;;;;;;;;;;;;;;;5108311;28;19900;-75
2021/11/08 01:44:38;;;;;;;;;;;;;;;;;;5116897;28;20026;-75
2021/11/08 01:47:04;;;;;;;;;;;;;;;;;;5110885;28;19939;-75
2021/11/08 01:49:29;;;;;;;;;;;;;;;;;;5110921;28;19912;-75
2021/11/08 01:51:54;;;;;;;;;;;;;;;;;;5116653;28;19980;-75
2021/11/08 01:54:19;;;;;;;;;;;;;;;;;;5110290;28;19974;-75
2021/11/08 01:56:45;;;;;;;;;;;;;;;;;;5114501;28;19920;-75
2021/11/08 01:59:10;;;;;;;;;;;;;;;;;;5111343;28;19984;-75
2021/11/08 02:01:35;;;;;;;;;;;;;;;;;;5110154;28;19936;-75
2021/11/08 02:04:01;;;;;;;;;;;;;;;;;;5116698;28;19939;-75
2021/11/08 02:06:26;;;;;;;;;;;;;;;;;;5107191;28;19915;-75
2021/11/08 02:08:51;;;;;;;;;;;;;;;;;;5116132;28;19900;-75
2021/11/08 02:11:17;;;;;;;;;;;;;;;;;;5111737;28;19908;-75
2021/11/08 02:13:42;;;;;;;;;;;;;;;;;;5109850;28;19911;-75
2021/11/08 02:16:07;;;;;;;;;;;;;;;;;;5115220;28;19945;-75
2021/11/08 02:18:34;;;;;;;;;;;;;;;;;;5109959;28;19916;-75
2021/11/08 02:21:02;;;;;;;;;;;;;;;;;;5116185;28;19906;-75
2021/11/08 02:23:27;;;;;;;;;;;;;;;;;;5105246;28;19908;-76
2021/11/08 02:25:55;;;;;;;;;;;;;;;;;;5110530;28;19900;-75
2021/11/08 02:28:21;;;;;;;;;;;;;;;;;;5114160;28;19994;-75
2021/11/08 02:30:46;;;;;;;;;;;;;;;;;;5109677;28;19900;-75
2021/11/08 02:33:11;;;;;;;;;;;;;;;;;;5116088;28;19904;-75
2021/11/08 02:35:37;;;;;;;;;;;;;;;;;;5108014;28;19943;-75
2021/11/08 02:38:02;;;;;;;;;;;;;;;;;;5108772;28;19900;-75
2021/11/08 02:40:29;;;;;;;;;;;;;;;;;;5114795;28;19930;-75
2021/11/08 02:42:54;;;;;;;;;;;;;;;;;;5091322;28;19900;-75
2021/11/08 02:45:19;;;;;;;;;;;;;;;;;;5115058;28;19911;-76
2021/11/08 02:47:44;;;;;;;;;;;;;;;;;;5108432;28;19942;-76
2021/11/08 02:50:10;;;;;;;;;;;;;;;;;;5109686;28;19925;-75
2021/11/08 02:52:36;;;;;;;;;;;;;;;;;;5114555;28;19908;-75
2021/11/08 02:55:01;;;;;;;;;;;;;;;;;;5108811;28;19908;-75
2021/11/08 02:57:28;;;;;;;;;;;;;;;;;;5113555;28;19908;-75
2021/11/08 02:59:53;;;;;;;;;;;;;;;;;;5110359;28;19953;-75
2021/11/08 03:02:19;;;;;;;;;;;;;;;;;;5107985;28;19900;-75
2021/11/08 03:04:47;;;;;;;;;;;;;;;;;;5114607;28;19920;-75
2021/11/08 03:07:13;;;;;;;;;;;;;;;;;;5109778;28;19933;-75
2021/11/08 03:09:38;;;;;;;;;;;;;;;;;;5114900;28;19931;-75
2021/11/08 03:12:09;;;;;;;;;;;;;;;;;;5108104;28;19912;-76
2021/11/08 03:14:40;;;;;;;;;;;;;;;;;;5107033;28;19935;-76
2021/11/08 03:17:06;;;;;;;;;;;;;;;;;;5114396;28;19916;-75
2021/11/08 03:19:34;;;;;;;;;;;;;;;;;;5098348;28;19997;-75
2021/11/08 03:22:00;;;;;;;;;;;;;;;;;;5095442;28;19901;-75
2021/11/08 03:24:40;;;;;;;;;;;;;;;;;;5108576;28;19915;-75
2021/11/08 03:27:14;;;;;;;;;;;;;;;;;;5109901;28;19996;-75
2021/11/08 03:29:39;;;;;;;;;;;;;;;;;;5113982;28;19900;-75
2021/11/08 03:32:05;;;;;;;;;;;;;;;;;;5107889;28;19935;-75
2021/11/08 03:34:30;;;;;;;;;;;;;;;;;;5109331;28;19912;-75
2021/11/08 03:36:56;;;;;;;;;;;;;;;;;;5113566;28;19908;-76
2021/11/08 03:39:21;;;;;;;;;;;;;;;;;;5107212;28;19969;-75
2021/11/08 03:41:46;;;;;;;;;;;;;;;;;;5115210;28;19919;-75
2021/11/08 03:44:11;;;;;;;;;;;;;;;;;;5109041;28;19915;-76
2021/11/08 03:46:37;;;;;;;;;;;;;;;;;;5108665;28;19900;-75
2021/11/08 03:49:03;;;;;;;;;;;;;;;;;;5111682;28;19926;-76
2021/11/08 03:51:28;;;;;;;;;;;;;;;;;;5108512;28;20002;-75
2021/11/08 03:53:53;;;;;;;;;;;;;;;;;;5114030;28;19930;-76
2021/11/08 03:56:19;;;;;;;;;;;;;;;;;;5108790;28;19908;-75
2021/11/08 03:58:44;;;;;;;;;;;;;;;;;;5108273;28;20240;-76
2021/11/08 04:01:09;;;;;;;;;;;;;;;;;;5113493;28;19910;-75
2021/11/08 04:03:35;;;;;;;;;;;;;;;;;;5108150;28;19916;-75
2021/11/08 04:06:00;;;;;;;;;;;;;;;;;;5113354;28;19997;-75
2021/11/08 04:08:26;;;;;;;;;;;;;;;;;;5105825;28;19919;-75
2021/11/08 04:10:53;;;;;;;;;;;;;;;;;;5108985;28;19975;-75
2021/11/08 04:13:19;;;;;;;;;;;;;;;;;;5094117;28;19931;-76
2021/11/08 04:15:44;;;;;;;;;;;;;;;;;;5108332;28;19963;-75
2021/11/08 04:18:10;;;;;;;;;;;;;;;;;;5113697;28;19923;-76
2021/11/08 04:20:35;;;;;;;;;;;;;;;;;;5106885;28;19916;-75
2021/11/08 04:23:00;;;;;;;;;;;;;;;;;;5105986;28;19908;-75
2021/11/08 04:25:26;;;;;;;;;;;;;;;;;;5114985;28;19919;-76
2021/11/08 04:27:52;;;;;;;;;;;;;;;;;;5107025;28;19901;-76
2021/11/08 04:30:17;;;;;;;;;;;;;;;;;;5117960;28;19963;-75
2021/11/08 04:33:14;;;;;;;;;;;;;;;;;;5110042;28;19911;-75
2021/11/08 04:40:36;;;;;;;;;;;;;;;;;;5111925;28;19900;-75
2021/11/08 04:43:25;;;;;;;;;;;;;;;;;;5110471;28;19927;-76
2021/11/08 04:46:16;;;;;;;;;;;;;;;;;;5117308;28;19942;-76
2021/11/08 04:51:30;;;;;;;;;;;;;;;;;;5111580;28;20268;-75
2021/11/08 05:21:14;;;;;;;;;;;;;;;;;;5111075;28;19919;-76
2021/11/08 05:31:36;;;;;;;;;;;;;;;;;;5111023;28;19919;-76
2021/11/08 05:34:01;;;;;;;;;;;;;;;;;;5115473;28;20256;-75
2021/11/08 05:36:26;;;;;;;;;;;;;;;;;;5108839;28;19934;-76
2021/11/08 05:38:52;;;;;;;;;;;;;;;;;;5115858;28;19919;-75
2021/11/08 05:41:18;;;;;;;;;;;;;;;;;;5110515;28;19914;-75
2021/11/08 05:43:43;;;;;;;;;;;;;;;;;;5109353;28;20362;-75
2021/11/08 05:46:10;;;;;;;;;;;;;;;;;;5115010;28;19909;-75
2021/11/08 05:48:35;;;;;;;;;;;;;;;;;;5110073;28;19911;-76
2021/11/08 05:51:00;;;;;;;;;;;;;;;;;;5116253;28;20350;-76
2021/11/08 05:53:25;;;;;;;;;;;;;;;;;;5108470;28;20005;-76
2021/11/08 05:55:57;;;;;;;;;;;;;;;;;;5109653;28;19904;-76
2021/11/08 05:58:49;;;;;;;;;;;;;;;;;;5115735;28;19919;-76
2021/11/08 06:50:24;;;;;;;;;;;;;;;;;;5114661;28;19911;-76
2021/11/08 06:52:51;;;;;;;;;;;;;;;;;;5113989;28;19900;-76
2021/11/08 06:55:16;;;;;;;;;;;;;;;;;;5104451;28;19920;-76
2021/11/08 06:57:46;;;;;;;;;;;;;;;;;;5115989;28;19912;-77
2021/11/08 07:00:11;;;;;;;;;;;;;;;;;;5112461;28;19904;-77
2021/11/08 07:02:36;;;;;;;;;;;;;;;;;;5114894;28;19938;-77
2021/11/08 07:05:02;;;;;;;;;;;;;;;;;;5113391;28;19932;-76
2021/11/08 07:07:27;;;;;;;;;;;;;;;;;;5111736;28;19915;-76
2021/11/08 07:09:52;;;;;;;;;;;;;;;;;;5112906;28;19900;-76
2021/11/08 07:12:18;;;;;;;;;;;;;;;;;;5113610;28;19900;-76
2021/11/08 07:14:43;;;;;;;;;;;;;;;;;;5115466;28;20666;-76
2021/11/08 07:17:08;;;;;;;;;;;;;;;;;;5110680;28;19904;-76
2021/11/08 07:19:34;;;;;;;;;;;;;;;;;;5113738;28;19900;-76
2021/11/08 07:21:59;;;;;;;;;;;;;;;;;;5113124;28;19922;-79
2021/11/08 07:24:24;;;;;;;;;;;;;;;;;;5113283;28;19905;-75
2021/11/08 07:26:49;;;;;;;;;;;;;;;;;;5112039;28;19908;-77
2021/11/08 07:29:16;;;;;;;;;;;;;;;;;;5115239;28;19924;-76
2021/11/08 07:31:41;;;;;;;;;;;;;;;;;;5113761;28;20220;-76
2021/11/08 07:34:06;;;;;;;;;;;;;;;;;;5110503;28;20257;-75
2021/11/08 07:36:31;;;;;;;;;;;;;;;;;;5114129;28;19904;-74
2021/11/08 07:38:57;;;;;;;;;;;;;;;;;;5112567;28;19908;-74
2021/11/08 07:41:22;;;;;;;;;;;;;;;;;;5114910;28;19911;-74
2021/11/08 07:43:48;;;;;;;;;;;;;;;;;;5114123;28;19983;-75
2021/11/08 07:46:13;;;;;;;;;;;;;;;;;;5111937;28;19930;-75
2021/11/08 07:48:42;;;;;;;;;;;;;;;;;;5102881;28;19908;-74
2021/11/08 07:51:07;;;;;;;;;;;;;;;;;;5105800;28;20245;-73
2021/11/08 07:53:32;;;;;;;;;;;;;;;;;;5110030;28;19914;-74
2021/11/08 07:55:58;;;;;;;;;;;;;;;;;;5112169;28;19947;-75
2021/11/08 07:58:23;;;;;;;;;;;;;;;;;;5111770;28;19906;-75
2021/11/08 08:00:48;;;;;;;;;;;;;;;;;;5112240;28;19900;-75
2021/11/08 08:03:15;;;;;;;;;;;;;;;;;;5106810;28;19980;-75
2021/11/08 08:05:40;;;;;;;;;;;;;;;;;;5109132;28;19970;-76
2021/11/08 08:08:05;;;;;;;;;;;;;;;;;;5109514;28;19908;-74
2021/11/08 08:10:31;;;;;;;;;;;;;;;;;;5109181;28;19899;-77
2021/11/08 08:12:56;;;;;;;;;;;;;;;;;;5099368;28;20872;-76
2021/11/08 08:15:21;;;;;;;;;;;;;;;;;;5109165;28;19926;-75
2021/11/08 08:17:46;;;;;;;;;;;;;;;;;;5111112;28;19908;-77
2021/11/08 08:20:12;;;;;;;;;;;;;;;;;;5112462;28;19914;-76
2021/11/08 08:22:37;;;;;;;;;;;;;;;;;;5109724;28;19922;-75
2021/11/08 08:25:02;;;;;;;;;;;;;;;;;;5112057;28;19911;-77
2021/11/08 08:27:27;;;;;;;;;;;;;;;;;;5111369;28;19911;-76
2021/11/08 08:29:52;;;;;;;;;;;;;;;;;;5110505;28;19908;-76
2021/11/08 08:32:18;;;;;;;;;;;;;;;;;;5111948;28;19930;-76
2021/11/08 08:34:43;;;;;;;;;;;;;;;;;;5109531;28;19946;-76
2021/11/08 08:37:09;;;;;;;;;;;;;;;;;;5111617;28;19900;-74
2021/11/08 08:39:34;;;;;;;;;;;;;;;;;;5110504;28;19901;-75
2021/11/08 08:42:00;;;;;;;;;;;;;;;;;;5111170;28;19915;-75
2021/11/08 08:44:25;;;;;;;;;;;;;;;;;;5103519;28;19908;-78
2021/11/08 08:46:50;;;;;;;;;;;;;;;;;;5111023;28;19988;-76
2021/11/08 08:49:15;;;;;;;;;;;;;;;;;;5111370;28;19900;-75
2021/11/08 08:51:42;;;;;;;;;;;;;;;;;;5110896;28;19911;-75
2021/11/08 08:54:07;;;;;;;;;;;;;;;;;;5110233;28;19955;-76
2021/11/08 08:56:32;;;;;;;;;;;;;;;;;;5109450;28;19908;-76
2021/11/08 08:58:58;;;;;;;;;;;;;;;;;;5110514;28;19907;-77
2021/11/08 09:01:23;;;;;;;;;;;;;;;;;;5109679;28;19900;-76
2021/11/08 09:03:48;;;;;;;;;;;;;;;;;;5100764;28;19908;-76
2021/11/08 09:06:14;;;;;;;;;;;;;;;;;;5104462;28;19926;-76
2021/11/08 09:08:39;;;;;;;;;;;;;;;;;;5108774;28;19908;-76
2021/11/08 09:11:05;;;;;;;;;;;;;;;;;;5110320;28;19900;-76
2021/11/08 09:13:30;;;;;;;;;;;;;;;;;;5113355;28;19930;-75
2021/11/08 09:15:55;;;;;;;;;;;;;;;;;;5113145;28;19910;-74
2021/11/08 09:18:20;;;;;;;;;;;;;;;;;;5115243;28;19916;-75
2021/11/08 09:20:46;;;;;;;;;;;;;;;;;;5114984;28;19972;-75
2021/11/08 09:23:11;;;;;;;;;;;;;;;;;;5115431;28;19911;-75
2021/11/08 09:25:36;;;;;;;;;;;;;;;;;;5112879;28;19919;-75
2021/11/08 09:28:01;;;;;;;;;;;;;;;;;;5117476;28;19911;-75
2021/11/08 09:30:27;;;;;;;;;;;;;;;;;;5115492;28;19908;-75
2021/11/08 09:32:52;;;;;;;;;;;;;;;;;;5114062;28;19900;-75
2021/11/08 09:35:17;;;;;;;;;;;;;;;;;;5114457;28;19918;-75
2021/11/08 09:37:44;;;;;;;;;;;;;;;;;;5115280;28;20218;-76
2021/11/08 09:40:09;;;;;;;;;;;;;;;;;;5114177;28;19922;-75
2021/11/08 09:42:34;;;;;;;;;;;;;;;;;;5114761;28;19900;-76
2021/11/08 09:45:00;;;;;;;;;;;;;;;;;;5114302;28;19904;-75
2021/11/08 09:47:25;;;;;;;;;;;;;;;;;;5113799;28;19900;-75
2021/11/08 09:49:51;;;;;;;;;;;;;;;;;;5113561;28;19900;-75
2021/11/08 09:52:17;;;;;;;;;;;;;;;;;;5112424;28;19936;-75
2021/11/08 09:54:43;;;;;;;;;;;;;;;;;;5112695;28;19907;-75
2021/11/08 09:57:08;;;;;;;;;;;;;;;;;;5114914;28;19904;-74
2021/11/08 09:59:34;;;;;;;;;;;;;;;;;;5114790;28;19900;-75
2021/11/08 10:01:59;;;;;;;;;;;;;;;;;;5113699;28;19908;-75
2021/11/08 10:04:24;;;;;;;;;;;;;;;;;;5114209;28;19908;-75
2021/11/08 10:06:49;;;;;;;;;;;;;;;;;;5115187;28;19911;-75
2021/11/08 10:09:19;;;;;;;;;;;;;;;;;;5114605;28;20009;-75
2021/11/08 10:11:44;;;;;;;;;;;;;;;;;;5113661;28;19915;-75
2021/11/08 10:14:09;;;;;;;;;;;;;;;;;;5114048;28;19904;-75
2021/11/08 10:16:35;;;;;;;;;;;;;;;;;;5114753;28;19900;-76
2021/11/08 10:19:00;;;;;;;;;;;;;;;;;;5114052;28;19907;-75
2021/11/08 10:21:25;;;;;;;;;;;;;;;;;;5112647;28;19900;-75
2021/11/08 10:23:50;;;;;;;;;;;;;;;;;;5114146;28;19911;-75
2021/11/08 10:26:15;;;;;;;;;;;;;;;;;;5113196;28;19967;-74
2021/11/08 10:28:41;;;;;;;;;;;;;;;;;;5115070;28;19908;-75
2021/11/08 10:31:09;;;;;;;;;;;;;;;;;;5112683;28;19921;-75
2021/11/08 10:33:34;;;;;;;;;;;;;;;;;;5114105;28;19912;-75
2021/11/08 10:36:04;;;;;;;;;;;;;;;;;;5114002;28;19937;-76
2021/11/08 10:38:30;;;;;;;;;;;;;;;;;;5112874;28;19909;-76
2021/11/08 10:40:55;;;;;;;;;;;;;;;;;;5113114;28;19899;-75
2021/11/08 10:43:20;;;;;;;;;;;;;;;;;;5113069;28;19900;-76
2021/11/08 10:45:46;;;;;;;;;;;;;;;;;;5112476;28;19914;-75
2021/11/08 10:48:11;;;;;;;;;;;;;;;;;;5113839;28;19919;-75
2021/11/08 10:50:36;;;;;;;;;;;;;;;;;;5113791;28;19907;-76
2021/11/08 10:53:01;;;;;;;;;;;;;;;;;;5113367;28;20009;-76
2021/11/08 10:55:26;;;;;;;;;;;;;;;;;;5113255;28;20065;-75
2021/11/08 10:57:52;;;;;;;;;;;;;;;;;;5114096;28;19919;-77
2021/11/08 11:00:17;;;;;;;;;;;;;;;;;;5112599;28;19904;-76
2021/11/08 11:02:42;;;;;;;;;;;;;;;;;;5107093;28;19908;-75
2021/11/08 11:05:07;;;;;;;;;;;;;;;;;;5112790;28;19932;-75
2021/11/08 11:07:34;;;;;;;;;;;;;;;;;;5112861;28;19900;-75
2021/11/08 11:09:59;;;;;;;;;;;;;;;;;;5112956;28;19968;-76
2021/11/08 11:12:25;;;;;;;;;;;;;;;;;;5112611;28;19911;-76
2021/11/08 11:14:50;;;;;;;;;;;;;;;;;;5113112;28;19915;-76
2021/11/08 11:17:15;;;;;;;;;;;;;;;;;;5113210;28;19904;-76
2021/11/08 11:19:41;;;;;;;;;;;;;;;;;;5110934;28;20099;-76
2021/11/08 11:22:07;;;;;;;;;;;;;;;;;;5111748;28;19908;-76
2021/11/08 11:24:33;;;;;;;;;;;;;;;;;;5114167;28;19926;-76
2021/11/08 11:26:58;;;;;;;;;;;;;;;;;;5092147;28;19908;-75
2021/11/08 11:29:23;;;;;;;;;;;;;;;;;;5090197;28;19916;-76
2021/11/08 11:31:48;;;;;;;;;;;;;;;;;;5095125;28;19967;-76
2021/11/08 11:34:14;;;;;;;;;;;;;;;;;;5094864;28;19934;-76
2021/11/08 11:36:39;;;;;;;;;;;;;;;;;;5113024;28;19904;-76
2021/11/08 11:39:06;;;;;;;;;;;;;;;;;;5112868;28;19900;-73
2021/11/08 11:41:33;;;;;;;;;;;;;;;;;;5112464;28;19896;-73
2021/11/08 11:43:58;;;;;;;;;;;;;;;;;;5112189;28;19908;-73
2021/11/08 11:46:24;;;;;;;;;;;;;;;;;;5112939;28;19902;-73
2021/11/08 11:48:49;;;;;;;;;;;;;;;;;;5112423;28;19900;-73
2021/11/08 11:51:14;;;;;;;;;;;;;;;;;;5113040;28;19928;-73
2021/11/08 11:53:39;;;;;;;;;;;;;;;;;;5111558;28;19934;-76
2021/11/08 11:56:05;;;;;;;;;;;;;;;;;;5111836;28;19904;-76
2021/11/08 11:58:30;;;;;;;;;;;;;;;;;;5112534;28;19900;-75
2021/11/08 12:00:58;;;;;;;;;;;;;;;;;;5112290;28;19971;-74
2021/11/08 12:03:24;;;;;;;;;;;;;;;;;;5112577;28;19938;-75
2021/11/08 12:05:54;;;;;;;;;;;;;;;;;;5112461;28;19912;-76
2021/11/08 12:08:19;;;;;;;;;;;;;;;;;;5113344;28;19908;-75
2021/11/08 12:10:44;;;;;;;;;;;;;;;;;;5112207;28;19900;-75
2021/11/08 12:13:09;;;;;;;;;;;;;;;;;;5111808;28;19968;-75
2021/11/08 12:15:35;;;;;;;;;;;;;;;;;;5111842;28;20200;-76
2021/11/08 12:18:00;;;;;;;;;;;;;;;;;;5112059;28;19900;-75
2021/11/08 12:20:25;;;;;;;;;;;;;;;;;;5111601;28;19926;-75
2021/11/08 12:22:50;;;;;;;;;;;;;;;;;;5112148;28;19901;-74
2021/11/08 12:25:15;;;;;;;;;;;;;;;;;;5111459;28;19932;-74
2021/11/08 12:27:41;;;;;;;;;;;;;;;;;;5112624;28;19937;-75
2021/11/08 12:30:06;;;;;;;;;;;;;;;;;;5111663;28;19908;-75
2021/11/08 12:32:31;;;;;;;;;;;;;;;;;;5112104;28;19907;-74
2021/11/08 12:34:58;;;;;;;;;;;;;;;;;;5113537;28;19912;-74
2021/11/08 12:37:23;;;;;;;;;;;;;;;;;;5109994;28;19967;-74
2021/11/08 12:39:49;;;;;;;;;;;;;;;;;;5112478;28;19911;-74
2021/11/08 12:42:14;;;;;;;;;;;;;;;;;;5110218;28;19900;-75
2021/11/08 12:44:39;;;;;;;;;;;;;;;;;;5111621;28;19915;-74
2021/11/08 12:47:04;;;;;;;;;;;;;;;;;;5115698;28;19911;-74
2021/11/08 12:49:30;;;;;;;;;;;;;;;;;;5115599;28;20193;-74
2021/11/08 12:51:55;;;;;;;;;;;;;;;;;;5116723;28;19907;-74
2021/11/08 12:54:20;;;;;;;;;;;;;;;;;;5115683;28;19916;-73
2021/11/08 12:56:46;;;;;;;;;;;;;;;;;;5115736;28;19915;-74
2021/11/08 12:59:12;;;;;;;;;;;;;;;;;;5114691;28;19977;-74
2021/11/08 13:01:37;;;;;;;;;;;;;;;;;;5116058;28;19904;-74
2021/11/08 13:04:02;;;;;;;;;;;;;;;;;;5115045;28;19900;-74
2021/11/08 13:06:27;;;;;;;;;;;;;;;;;;5114487;28;19947;-73
2021/11/08 13:08:52;;;;;;;;;;;;;;;;;;5115783;28;19908;-74
2021/11/08 13:11:18;;;;;;;;;;;;;;;;;;5115249;28;19964;-75
2021/11/08 13:13:43;;;;;;;;;;;;;;;;;;5115253;28;19921;-74
2021/11/08 13:16:11;;;;;;;;;;;;;;;;;;5115347;28;19918;-74
2021/11/08 13:18:36;;;;;;;;;;;;;;;;;;5114327;28;19912;-74
2021/11/08 13:21:01;;;;;;;;;;;;;;;;;;5110035;28;19991;-75
2021/11/08 13:23:28;;;;;;;;;;;;;;;;;;5114228;28;19908;-74
2021/11/08 13:25:53;;;;;;;;;;;;;;;;;;5112153;28;20116;-75
2021/11/08 13:28:18;;;;;;;;;;;;;;;;;;5112714;28;20113;-75
2021/11/08 13:30:44;;;;;;;;;;;;;;;;;;5114060;28;19967;-75
2021/11/08 13:33:09;;;;;;;;;;;;;;;;;;5112021;28;19900;-72
2021/11/08 13:35:34;;;;;;;;;;;;;;;;;;5112666;28;19923;-73
2021/11/08 13:37:59;;;;;;;;;;;;;;;;;;5114486;28;19900;-74
2021/11/08 13:40:24;;;;;;;;;;;;;;;;;;5113956;28;19907;-74
2021/11/08 13:42:51;;;;;;;;;;;;;;;;;;5114179;28;19908;-74
2021/11/08 13:45:16;;;;;;;;;;;;;;;;;;5112744;28;19994;-74
2021/11/08 13:47:42;;;;;;;;;;;;;;;;;;5111413;28;19900;-74
2021/11/08 13:50:07;;;;;;;;;;;;;;;;;;5112623;28;19948;-74
2021/11/08 13:52:33;;;;;;;;;;;;;;;;;;5111691;28;19900;-74
2021/11/08 13:54:58;;;;;;;;;;;;;;;;;;5113208;28;19900;-74
2021/11/08 13:57:23;;;;;;;;;;;;;;;;;;5112507;28;19905;-75
2021/11/08 13:59:49;;;;;;;;;;;;;;;;;;5113723;28;19915;-74
2021/11/08 14:02:15;;;;;;;;;;;;;;;;;;5113956;28;19969;-74
2021/11/08 14:04:41;;;;;;;;;;;;;;;;;;5114155;28;19905;-74
2021/11/08 14:07:07;;;;;;;;;;;;;;;;;;5112846;28;19900;-74
2021/11/08 14:09:32;;;;;;;;;;;;;;;;;;5097706;28;19900;-74
2021/11/08 14:11:57;;;;;;;;;;;;;;;;;;5113414;28;20152;-74
2021/11/08 14:14:23;;;;;;;;;;;;;;;;;;5113254;28;19923;-74
2021/11/08 14:16:48;;;;;;;;;;;;;;;;;;5106486;28;19988;-74
2021/11/08 14:19:13;;;;;;;;;;;;;;;;;;5113360;28;19915;-74
2021/11/08 14:21:38;;;;;;;;;;;;;;;;;;5111830;28;19904;-73
2021/11/08 14:24:03;;;;;;;;;;;;;;;;;;5112365;28;19922;-74
2021/11/08 14:26:29;;;;;;;;;;;;;;;;;;5112797;28;19919;-74
2021/11/08 14:28:54;;;;;;;;;;;;;;;;;;5113064;28;19908;-74
2021/11/08 14:31:19;;;;;;;;;;;;;;;;;;5112115;28;19950;-74
2021/11/08 14:33:44;;;;;;;;;;;;;;;;;;5112493;28;19912;-75
2021/11/08 14:36:10;;;;;;;;;;;;;;;;;;5112874;28;19970;-74
2021/11/08 14:38:35;;;;;;;;;;;;;;;;;;5112370;28;19950;-74
2021/11/08 14:41:00;;;;;;;;;;;;;;;;;;5112167;28;19931;-74
2021/11/08 14:43:26;;;;;;;;;;;;;;;;;;5112909;28;19900;-74
2021/11/08 14:45:51;;;;;;;;;;;;;;;;;;5111062;28;20120;-74
2021/11/08 14:48:16;;;;;;;;;;;;;;;;;;5112074;28;19939;-74
2021/11/08 14:50:41;;;;;;;;;;;;;;;;;;5110851;28;20093;-75
2021/11/08 14:53:07;;;;;;;;;;;;;;;;;;5112546;28;19918;-75
2021/11/08 14:55:32;;;;;;;;;;;;;;;;;;5110484;28;19940;-74
2021/11/08 14:57:57;;;;;;;;;;;;;;;;;;5112714;28;20061;-75
2021/11/08 15:00:22;;;;;;;;;;;;;;;;;;5111024;28;19907;-74
2021/11/08 15:02:48;;;;;;;;;;;;;;;;;;5111643;28;19932;-74
2021/11/08 15:05:13;;;;;;;;;;;;;;;;;;5111653;28;19912;-73
2021/11/08 15:07:38;;;;;;;;;;;;;;;;;;5111169;28;19915;-74
2021/11/08 15:10:04;;;;;;;;;;;;;;;;;;5111345;28;19908;-74
2021/11/08 15:12:29;;;;;;;;;;;;;;;;;;5106757;28;19900;-74
2021/11/08 15:14:54;;;;;;;;;;;;;;;;;;5080974;28;19987;-74
2021/11/08 15:17:19;;;;;;;;;;;;;;;;;;5111529;28;19908;-74
2021/11/08 15:19:45;;;;;;;;;;;;;;;;;;5104313;28;19904;-75
2021/11/08 15:22:11;;;;;;;;;;;;;;;;;;5110239;28;19908;-74
2021/11/08 15:24:36;;;;;;;;;;;;;;;;;;5107434;28;19908;-74
2021/11/08 15:27:01;;;;;;;;;;;;;;;;;;5104885;28;19907;-75
2021/11/08 15:29:27;;;;;;;;;;;;;;;;;;5111996;28;19908;-75
2021/11/08 15:31:52;;;;;;;;;;;;;;;;;;5105498;28;19918;-74
2021/11/08 15:34:18;;;;;;;;;;;;;;;;;;5110394;28;20101;-74
2021/11/08 15:36:43;;;;;;;;;;;;;;;;;;5109836;28;19927;-74
2021/11/08 15:39:09;;;;;;;;;;;;;;;;;;5105785;28;19907;-73
2021/11/08 15:41:35;;;;;;;;;;;;;;;;;;5109607;28;19901;-75
2021/11/08 15:44:00;;;;;;;;;;;;;;;;;;5105431;28;19928;-74
2021/11/08 15:46:25;;;;;;;;;;;;;;;;;;5107003;28;19945;-74
2021/11/08 15:48:50;;;;;;;;;;;;;;;;;;5109309;28;19938;-75
2021/11/08 15:51:16;;;;;;;;;;;;;;;;;;5106438;28;19927;-74
2021/11/08 15:53:41;;;;;;;;;;;;;;;;;;5109460;28;19919;-73
2021/11/08 15:56:06;;;;;;;;;;;;;;;;;;5105880;28;19904;-74
2021/11/08 15:58:31;;;;;;;;;;;;;;;;;;5107989;28;19938;-74
2021/11/08 16:00:57;;;;;;;;;;;;;;;;;;5110336;28;19963;-75
2021/11/08 16:03:22;;;;;;;;;;;;;;;;;;5107466;28;19918;-73
2021/11/08 16:05:48;;;;;;;;;;;;;;;;;;5109955;28;19914;-73
2021/11/08 16:08:13;;;;;;;;;;;;;;;;;;5105902;28;19928;-73
2021/11/08 16:10:38;;;;;;;;;;;;;;;;;;5105704;28;19919;-73
2021/11/08 16:13:03;;;;;;;;;;;;;;;;;;5107911;28;19927;-74
2021/11/08 16:15:29;;;;;;;;;;;;;;;;;;5103569;28;19958;-74
2021/11/08 16:17:56;;;;;;;;;;;;;;;;;;5109307;28;19915;-74
2021/11/08 16:20:21;;;;;;;;;;;;;;;;;;5105024;28;20106;-75
2021/11/08 16:22:48;;;;;;;;;;;;;;;;;;5111663;28;19908;-75
2021/11/08 16:25:13;;;;;;;;;;;;;;;;;;5117717;28;19969;-74
2021/11/08 16:27:38;;;;;;;;;;;;;;;;;;5113492;28;19900;-74
2021/11/08 16:30:03;;;;;;;;;;;;;;;;;;5117610;28;19900;-74
2021/11/08 16:32:30;;;;;;;;;;;;;;;;;;5112504;28;20126;-75
2021/11/08 16:34:55;;;;;;;;;;;;;;;;;;5113040;28;19969;-75
2021/11/08 16:37:20;;;;;;;;;;;;;;;;;;5117372;28;19900;-74
2021/11/08 16:39:46;;;;;;;;;;;;;;;;;;5110681;28;19904;-74
2021/11/08 16:42:11;;;;;;;;;;;;;;;;;;5117466;28;19919;-73
2021/11/08 16:44:37;;;;;;;;;;;;;;;;;;5110705;28;19901;-74
2021/11/08 16:47:02;;;;;;;;;;;;;;;;;;5110522;28;19908;-74
2021/11/08 16:49:28;;;;;;;;;;;;;;;;;;5119084;27;19919;-74
2021/11/08 16:51:55;;;;;;;;;;;;;;;;;;5112910;28;19900;-75
2021/11/08 16:54:21;;;;;;;;;;;;;;;;;;5115761;28;19927;-74
2021/11/08 16:56:46;;;;;;;;;;;;;;;;;;5112079;28;19922;-74
2021/11/08 16:59:14;;;;;;;;;;;;;;;;;;5112717;28;19900;-74
2021/11/08 17:01:40;;;;;;;;;;;;;;;;;;5100320;28;19923;-74
2021/11/08 17:04:06;;;;;;;;;;;;;;;;;;5108248;28;19920;-74
2021/11/08 17:06:38;;;;;;;;;;;;;;;;;;5113573;28;19904;-74
2021/11/08 17:14:29;;;;;;;;;;;;;;;;;;5114531;28;19919;-74
2021/11/08 17:16:54;;;;;;;;;;;;;;;;;;5111465;28;19907;-74
2021/11/08 17:19:19;;;;;;;;;;;;;;;;;;5112353;28;19900;-74
2021/11/08 17:21:44;;;;;;;;;;;;;;;;;;5115311;28;19979;-75
2021/11/08 17:24:11;;;;;;;;;;;;;;;;;;5105076;28;19900;-75
2021/11/08 17:26:38;;;;;;;;;;;;;;;;;;5110293;28;19900;-75
2021/11/08 17:29:03;;;;;;;;;;;;;;;;;;5111729;28;19908;-75
2021/11/08 17:31:28;;;;;;;;;;;;;;;;;;5109819;28;19926;-75
2021/11/08 17:33:55;;;;;;;;;;;;;;;;;;5111441;28;19908;-75
2021/11/08 17:36:20;;;;;;;;;;;;;;;;;;5105577;28;20204;-76
2021/11/08 17:38:46;;;;;;;;;;;;;;;;;;5092779;28;19900;-75
2021/11/08 17:41:12;;;;;;;;;;;;;;;;;;5106579;28;19908;-75
2021/11/08 17:43:37;;;;;;;;;;;;;;;;;;5104748;28;19908;-76
2021/11/08 17:46:03;;;;;;;;;;;;;;;;;;5095292;28;19927;-75
2021/11/08 17:48:28;;;;;;;;;;;;;;;;;;5108647;28;19915;-76
2021/11/08 17:50:55;;;;;;;;;;;;;;;;;;5110982;28;19919;-75
2021/11/08 17:53:20;;;;;;;;;;;;;;;;;;5108527;28;19901;-75
2021/11/08 17:55:46;;;;;;;;;;;;;;;;;;5104702;28;19920;-75
2021/11/08 17:58:11;;;;;;;;;;;;;;;;;;5110306;28;19972;-76
2021/11/08 18:00:36;;;;;;;;;;;;;;;;;;5102779;28;19908;-77
2021/11/08 18:03:01;;;;;;;;;;;;;;;;;;5110228;28;19953;-76
2021/11/08 18:05:27;;;;;;;;;;;;;;;;;;5107118;28;20098;-77
2021/11/08 18:07:52;;;;;;;;;;;;;;;;;;5104866;28;20115;-77
2021/11/08 18:10:17;;;;;;;;;;;;;;;;;;5112902;28;19935;-80
2021/11/08 18:12:43;;;;;;;;;;;;;;;;;;5105744;28;19915;-75
2021/11/08 18:15:08;;;;;;;;;;;;;;;;;;5112567;28;20021;-76
2021/11/08 18:17:33;;;;;;;;;;;;;;;;;;5103632;28;19939;-77
2021/11/08 18:20:02;;;;;;;;;;;;;;;;;;5105589;28;19916;-78